TimeCST,TemperatureF,Dew PointF,Humidity,Sea Level PressureIn,VisibilityMPH,Wind Direction,Wind SpeedMPH,Gust SpeedMPH,PrecipitationIn,Events,Conditions,WindDirDegrees,DateUTC
12:13 AM,28.4,26.6,93,29.73,7.0,SSE,11.5,-,N/A,,Overcast,150,2013-03-04 06:13:00
12:33 AM,28.4,26.6,93,29.72,7.0,SE,11.5,16.1,N/A,,Overcast,140,2013-03-04 06:33:00
12:53 AM,28.4,26.6,93,29.72,7.0,SSE,12.7,-,N/A,,Overcast,150,2013-03-04 06:53:00
1:13 AM,28.4,26.6,93,29.71,7.0,SSE,16.1,-,N/A,,Overcast,150,2013-03-04 07:13:00
2:13 AM,26.6,24.8,93,29.71,7.0,SE,12.7,-,N/A,,Overcast,140,2013-03-04 08:13:00
2:33 AM,26.6,24.8,93,29.70,7.0,SE,12.7,18.4,N/A,,Overcast,140,2013-03-04 08:33:00
2:53 AM,26.6,24.8,93,29.69,7.0,SE,11.5,-,N/A,,Overcast,140,2013-03-04 08:53:00
3:34 AM,26.6,24.8,93,29.71,7.0,SE,8.1,-,N/A,,Overcast,140,2013-03-04 09:34:00
3:53 AM,26.6,24.8,93,29.71,10.0,SSE,9.2,-,N/A,,Overcast,150,2013-03-04 09:53:00
4:13 AM,26.6,24.8,93,29.72,10.0,SE,9.2,-,N/A,,Overcast,140,2013-03-04 10:13:00
4:34 AM,26.6,24.8,93,29.72,10.0,SSE,10.4,17.3,N/A,,Overcast,150,2013-03-04 10:34:00
5:13 AM,26.6,24.8,93,29.73,10.0,SSE,9.2,-,N/A,,Overcast,150,2013-03-04 11:13:00
5:34 AM,26.6,24.8,93,29.73,10.0,SSE,8.1,16.1,N/A,,Overcast,150,2013-03-04 11:34:00
5:53 AM,26.6,24.8,93,29.73,10.0,SSE,10.4,-,N/A,,Overcast,150,2013-03-04 11:53:00
6:13 AM,26.6,24.8,93,29.73,10.0,SSE,9.2,-,N/A,,Overcast,150,2013-03-04 12:13:00
6:33 AM,26.6,24.8,93,29.74,7.0,SE,9.2,-,N/A,,Overcast,140,2013-03-04 12:33:00
6:53 AM,26.6,24.8,93,29.74,7.0,SSE,9.2,16.1,N/A,,Overcast,150,2013-03-04 12:53:00
7:13 AM,26.6,24.8,93,29.74,7.0,SSE,10.4,-,N/A,,Overcast,150,2013-03-04 13:13:00
7:33 AM,26.6,24.8,93,29.74,7.0,SSE,10.4,-,N/A,,Overcast,150,2013-03-04 13:33:00
7:53 AM,26.6,24.8,93,29.75,5.0,SSE,9.2,-,N/A,,Overcast,150,2013-03-04 13:53:00
8:14 AM,26.6,24.8,93,29.76,5.0,SE,8.1,-,N/A,,Overcast,140,2013-03-04 14:14:00
8:33 AM,26.6,24.8,93,29.76,4.0,SSE,8.1,-,N/A,,Overcast,150,2013-03-04 14:33:00
8:53 AM,26.6,24.8,93,29.76,2.5,SSE,8.1,-,N/A,,Overcast,150,2013-03-04 14:53:00
9:14 AM,26.6,26.6,100,29.76,1.8,SSE,9.2,-,N/A,,Overcast,150,2013-03-04 15:14:00
9:33 AM,26.6,26.6,100,29.76,1.8,SSE,9.2,-,N/A,,Overcast,150,2013-03-04 15:33:00
9:53 AM,26.6,26.6,100,29.77,1.8,SSE,8.1,-,N/A,,Overcast,160,2013-03-04 15:53:00
10:13 AM,26.6,26.6,100,29.77,1.8,South,6.9,-,N/A,,Overcast,170,2013-03-04 16:13:00
10:33 AM,28.4,26.6,93,29.77,1.8,South,6.9,-,N/A,,Overcast,170,2013-03-04 16:33:00
10:53 AM,28.4,26.6,93,29.77,1.8,South,8.1,-,N/A,,Overcast,170,2013-03-04 16:53:00
11:14 AM,28.4,26.6,93,29.78,1.8,South,8.1,-,N/A,,Overcast,180,2013-03-04 17:14:00
11:33 AM,28.4,26.6,93,29.79,2.0,South,6.9,-,N/A,,Overcast,180,2013-03-04 17:33:00
11:53 AM,28.4,26.6,93,29.79,1.8,South,5.8,-,N/A,Snow,Light Snow,180,2013-03-04 17:53:00
12:14 PM,28.4,26.6,93,29.79,1.8,South,5.8,-,N/A,Snow,Light Snow,180,2013-03-04 18:14:00
12:33 PM,28.4,26.6,93,29.79,1.8,South,6.9,-,N/A,Snow,Light Snow,190,2013-03-04 18:33:00
12:53 PM,28.4,26.6,93,29.79,3.0,South,4.6,-,N/A,Snow,Light Snow,190,2013-03-04 18:53:00
1:13 PM,28.4,26.6,93,29.79,3.0,South,4.6,-,N/A,,Overcast,180,2013-03-04 19:13:00
1:33 PM,28.4,26.6,93,29.79,3.0,South,4.6,-,N/A,,Overcast,180,2013-03-04 19:33:00
1:53 PM,28.4,26.6,93,29.79,3.0,South,4.6,-,N/A,,Overcast,180,2013-03-04 19:53:00
2:13 PM,28.4,28.4,100,29.79,3.0,SSW,3.5,-,N/A,Snow,Light Snow,200,2013-03-04 20:13:00
2:33 PM,28.4,28.4,100,29.79,2.5,South,3.5,-,N/A,Snow,Light Snow,190,2013-03-04 20:33:00
2:53 PM,30.2,28.4,93,29.79,2.0,South,3.5,-,N/A,Snow,Light Snow,180,2013-03-04 20:53:00
3:13 PM,30.2,28.4,93,29.80,3.0,Calm,Calm,-,N/A,Snow,Light Snow,0,2013-03-04 21:13:00
3:33 PM,30.2,28.4,93,29.80,2.5,Calm,Calm,-,N/A,Snow,Light Snow,0,2013-03-04 21:33:00
3:53 PM,30.2,28.4,93,29.80,2.0,Calm,Calm,-,N/A,Snow,Light Snow,0,2013-03-04 21:53:00
4:13 PM,30.2,28.4,93,29.81,3.0,Calm,Calm,-,0.01,Snow,Light Snow,0,2013-03-04 22:13:00
4:33 PM,30.2,28.4,93,29.81,5.0,Calm,Calm,-,0.01,,Overcast,0,2013-03-04 22:33:00
4:53 PM,30.2,28.4,93,29.83,4.0,West,4.6,-,N/A,,Overcast,270,2013-03-04 22:53:00
5:13 PM,30.2,28.4,93,29.84,3.0,Calm,Calm,-,N/A,,Overcast,0,2013-03-04 23:13:00
5:33 PM,30.2,28.4,93,29.85,4.0,Calm,Calm,-,N/A,,Overcast,0,2013-03-04 23:33:00
5:53 PM,30.2,28.4,93,29.86,4.0,Calm,Calm,-,N/A,,Overcast,0,2013-03-04 23:53:00
6:13 PM,28.4,26.6,93,29.87,3.0,Calm,Calm,-,N/A,,Mostly Cloudy,0,2013-03-05 00:13:00
6:33 PM,28.4,26.6,93,29.87,2.5,SW,3.5,-,N/A,,Scattered Clouds,230,2013-03-05 00:33:00
6:53 PM,28.4,26.6,93,29.87,3.0,Calm,Calm,-,N/A,,Clear,0,2013-03-05 00:53:00
7:13 PM,28.4,26.6,93,29.88,2.5,Calm,Calm,-,N/A,,Clear,0,2013-03-05 01:13:00
7:33 PM,28.4,26.6,93,29.90,3.0,SW,3.5,-,N/A,,Mostly Cloudy,230,2013-03-05 01:33:00
7:53 PM,28.4,26.6,93,29.90,3.0,SW,4.6,-,N/A,,Overcast,230,2013-03-05 01:53:00
8:13 PM,28.4,26.6,93,29.90,3.0,SW,4.6,-,N/A,,Scattered Clouds,230,2013-03-05 02:13:00
8:33 PM,28.4,26.6,93,29.91,4.0,SW,5.8,-,N/A,,Scattered Clouds,220,2013-03-05 02:33:00
8:53 PM,28.4,26.6,93,29.91,4.0,SW,5.8,-,N/A,,Mostly Cloudy,220,2013-03-05 02:53:00
9:13 PM,28.4,28.4,100,29.91,5.0,WSW,5.8,-,N/A,,Overcast,240,2013-03-05 03:13:00
9:34 PM,28.4,26.6,93,29.91,10.0,West,6.9,-,N/A,,Overcast,260,2013-03-05 03:34:00
9:53 PM,28.4,23.0,80,29.91,10.0,West,5.8,-,N/A,,Overcast,260,2013-03-05 03:53:00
10:13 PM,28.4,21.2,74,29.90,10.0,West,8.1,-,N/A,,Overcast,260,2013-03-05 04:13:00
10:53 PM,26.6,21.2,80,29.90,10.0,WNW,10.4,-,N/A,,Mostly Cloudy,290,2013-03-05 04:53:00
11:13 PM,26.6,21.2,80,29.90,10.0,West,9.2,-,N/A,,Mostly Cloudy,280,2013-03-05 05:13:00
11:34 PM,26.6,21.2,80,29.91,10.0,West,11.5,-,N/A,,Overcast,280,2013-03-05 05:34:00
11:53 PM,24.8,21.2,86,29.90,10.0,West,11.5,-,N/A,,Overcast,280,2013-03-05 05:53:00